Time;durP1;ratioP1;P1;durP2;ratioP2;P2;SDS_P1;SDS_P2;PMS_P1;PMS_P2;Temp;Humidity;BMP_temperature;BMP_pressure;BME280_temperature;BME280_humidity;BME280_pressure;Samples;Min_cycle;Max_cycle;Signal;HPM_P1;HPM_P2
2021/08/31 00:00:42;;;;;;;13.93;8.43;;;;;;;18.61;60.39;102251.66;4787855;29;124062;-74
2021/08/31 00:03:09;;;;;;;15.43;8.32;;;;;;;18.59;60.44;102261.59;4815073;29;118943;-74
2021/08/31 00:05:37;;;;;;;14.90;8.05;;;;;;;18.57;60.33;102253.66;4815331;29;118836;-74
2021/08/31 00:08:04;;;;;;;14.15;8.40;;;;;;;18.58;60.43;102254.53;4818207;29;124292;-74
2021/08/31 00:10:31;;;;;;;13.55;8.30;;;;;;;18.58;60.73;102259.91;4812341;29;123871;-73
2021/08/31 00:12:58;;;;;;;14.40;8.13;;;;;;;18.59;60.76;102261.59;4805409;29;119151;-73
2021/08/31 00:15:25;;;;;;;14.48;8.50;;;;;;;18.59;60.76;102256.25;4815108;29;119597;-74
2021/08/31 00:17:52;;;;;;;14.88;8.63;;;;;;;18.61;60.88;102254.34;4805844;29;123381;-74
2021/08/31 00:20:20;;;;;;;16.23;8.65;;;;;;;18.64;61.04;102264.91;4806004;29;123958;-74
2021/08/31 00:22:47;;;;;;;14.95;8.70;;;;;;;18.66;61.30;102257.63;4813622;29;119175;-74
2021/08/31 00:25:14;;;;;;;17.05;9.35;;;;;;;18.66;61.16;102269.22;4798932;29;119453;-74
2021/08/31 00:27:41;;;;;;;14.95;8.82;;;;;;;18.68;61.03;102266.47;4797967;29;125150;-74
2021/08/31 00:30:09;;;;;;;14.95;8.68;;;;;;;18.70;61.12;102269.91;4815611;29;123643;-74
2021/08/31 00:32:36;;;;;;;16.25;9.27;;;;;;;18.71;61.11;102260.94;4800388;29;119212;-75
2021/08/31 00:35:03;;;;;;;15.75;9.50;;;;;;;18.73;61.36;102256.34;4814218;29;118921;-74
2021/08/31 00:37:30;;;;;;;17.50;9.85;;;;;;;18.75;61.16;102267.00;4814200;29;123210;-74
2021/08/31 00:39:57;;;;;;;16.05;9.80;;;;;;;18.77;61.63;102265.09;4796232;29;124039;-74
2021/08/31 00:42:25;;;;;;;14.70;8.95;;;;;;;18.80;61.58;102275.66;4788513;29;118157;-74
2021/08/31 00:44:52;;;;;;;17.48;9.38;;;;;;;18.82;61.60;102274.63;4818903;29;119065;-75
2021/08/31 00:47:19;;;;;;;15.98;9.23;;;;;;;18.84;61.64;102262.00;4818508;29;124562;-75
2021/08/31 00:49:47;;;;;;;19.35;10.18;;;;;;;18.88;61.52;102273.41;4787631;29;122878;-74
2021/08/31 00:52:16;;;;;;;16.15;9.65;;;;;;;18.91;61.62;102261.63;4787191;29;118927;-74
2021/08/31 00:54:44;;;;;;;15.73;9.73;;;;;;;18.92;61.61;102266.06;4789045;29;118596;-74
2021/08/31 00:57:13;;;;;;;16.80;9.95;;;;;;;18.95;61.60;102273.91;4785940;29;123021;-73
2021/08/31 00:59:40;;;;;;;13.50;9.45;;;;;;;18.96;61.53;102271.16;4818593;29;123511;-75
2021/08/31 01:02:07;;;;;;;15.13;9.50;;;;;;;18.97;61.72;102266.66;4800682;29;119780;-75
2021/08/31 01:04:35;;;;;;;16.52;10.02;;;;;;;19.00;61.57;102271.84;4817859;29;120301;-74
2021/08/31 01:07:02;;;;;;;17.00;10.55;;;;;;;19.02;61.81;102275.31;4817369;29;124280;-75
2021/08/31 01:09:29;;;;;;;15.63;9.70;;;;;;;19.03;61.56;102271.69;4819714;29;124275;-75
2021/08/31 01:11:57;;;;;;;17.17;10.43;;;;;;;19.06;61.81;102276.84;4806584;29;118487;-74
2021/08/31 01:14:25;;;;;;;17.88;10.18;;;;;;;19.07;61.70;102273.22;4804388;29;118699;-74
2021/08/31 01:16:53;;;;;;;19.65;10.13;;;;;;;19.08;61.70;102280.34;4781491;29;122820;-74
2021/08/31 01:19:25;;;;;;;18.17;11.10;;;;;;;19.08;61.73;102279.44;4804560;29;121852;-75
2021/08/31 01:21:52;;;;;;;16.83;10.52;;;;;;;19.09;61.72;102271.31;4786856;29;119000;-75
2021/08/31 01:24:20;;;;;;;16.90;10.40;;;;;;;19.10;61.96;102278.44;4817455;29;119081;-75
2021/08/31 01:26:49;;;;;;;17.05;10.38;;;;;;;19.13;61.72;102283.59;4815922;29;123950;-74
2021/08/31 01:29:16;;;;;;;15.23;9.77;;;;;;;19.15;62.00;102287.06;4816832;29;123690;-74
2021/08/31 01:31:43;;;;;;;17.38;10.00;;;;;;;19.16;61.93;102272.69;4817109;29;119777;-74
2021/08/31 01:34:10;;;;;;;15.32;9.63;;;;;;;19.17;61.85;102279.78;4800700;29;120116;-74
2021/08/31 01:36:37;;;;;;;15.65;9.75;;;;;;;19.19;61.86;102285.06;4803585;29;124761;-74
2021/08/31 01:39:06;;;;;;;20.92;11.00;;;;;;;19.19;61.90;102294.00;4791898;29;123336;-74
2021/08/31 01:41:33;;;;;;;17.67;10.43;;;;;;;19.19;61.91;102293.13;4786616;29;120428;-74
2021/08/31 01:44:00;;;;;;;15.98;9.85;;;;;;;19.19;61.99;102294.00;4818455;29;119334;-74
2021/08/31 01:46:28;;;;;;;16.80;10.32;;;;;;;19.21;62.00;102299.25;4817377;29;124123;-74
2021/08/31 01:48:55;;;;;;;17.67;9.68;;;;;;;19.20;61.99;102294.88;4806416;29;123450;-74
2021/08/31 01:54:27;;;;;;;19.85;11.43;;;;;;;19.19;61.97;102299.38;4814164;29;120077;-65
2021/08/31 01:56:54;;;;;;;19.48;10.85;;;;;;;19.18;61.83;102302.16;4813854;29;124950;-66
2021/08/31 01:59:21;;;;;;;21.25;11.13;;;;;;;19.18;62.07;102308.38;4815989;29;123111;-66
2021/08/31 02:01:48;;;;;;;20.60;11.13;;;;;;;19.18;61.88;102311.06;4817277;29;120071;-65
2021/08/31 02:04:15;;;;;;;18.27;10.68;;;;;;;19.19;61.89;102304.75;4817938;29;119350;-65
2021/08/31 02:06:43;;;;;;;17.67;10.52;;;;;;;19.19;62.15;102310.13;4814178;29;124669;-65
2021/08/31 02:09:10;;;;;;;19.35;11.40;;;;;;;19.20;61.88;102306.47;4814909;29;124231;-65
2021/08/31 02:11:37;;;;;;;19.58;10.93;;;;;;;19.21;62.12;102312.69;4815284;29;119639;-65
2021/08/31 02:14:05;;;;;;;20.92;11.05;;;;;;;19.21;61.86;102310.91;4813982;29;119755;-65
2021/08/31 02:16:35;;;;;;;18.35;11.57;;;;;;;19.20;62.08;102317.22;4814701;29;124436;-65
2021/08/31 02:19:02;;;;;;;18.52;10.90;;;;;;;19.20;62.17;102311.84;4815229;29;124674;-64
2021/08/31 02:21:29;;;;;;;18.23;10.80;;;;;;;19.18;62.09;102313.75;4797177;29;119001;-65
2021/08/31 02:23:56;;;;;;;20.40;11.52;;;;;;;19.17;62.26;102321.88;4815967;29;118852;-65
2021/08/31 02:26:24;;;;;;;18.50;10.98;;;;;;;19.16;62.17;102314.81;4815826;29;125285;-65
2021/08/31 02:28:51;;;;;;;18.95;11.15;;;;;;;19.15;62.34;102313.91;4812787;29;123204;-65
2021/08/31 02:31:18;;;;;;;20.52;11.48;;;;;;;19.15;62.28;102313.91;4811563;29;119316;-65
2021/08/31 02:33:45;;;;;;;22.05;11.63;;;;;;;19.16;62.23;102315.66;4814384;29;118836;-65
2021/08/31 02:36:13;;;;;;;18.52;11.63;;;;;;;19.15;62.37;102308.53;4813547;29;98664;-65
2021/08/31 02:38:41;;;;;;;18.50;11.43;;;;;;;19.16;62.11;102307.59;4813423;29;124119;-65
2021/08/31 02:41:08;;;;;;;19.88;11.75;;;;;;;19.16;62.29;102310.28;4810514;29;120364;-65
2021/08/31 02:43:35;;;;;;;20.38;11.55;;;;;;;19.16;62.19;102304.91;4798940;29;120705;-65
2021/08/31 02:46:02;;;;;;;19.27;11.90;;;;;;;19.15;62.21;102308.53;4815718;29;124166;-65
2021/08/31 02:48:29;;;;;;;22.48;12.13;;;;;;;19.13;62.39;102305.09;4812554;29;124637;-65
2021/08/31 02:50:56;;;;;;;22.33;12.20;;;;;;;19.11;62.43;102309.69;4800477;29;118410;-65
2021/08/31 02:53:24;;;;;;;22.73;12.45;;;;;;;19.09;62.39;102308.91;4816666;29;119461;-65
2021/08/31 02:55:51;;;;;;;19.05;12.00;;;;;;;19.08;62.43;102312.56;4813761;29;124875;-65
2021/08/31 02:58:18;;;;;;;20.65;12.38;;;;;;;19.07;62.14;102302.75;4813898;29;124048;-65
2021/08/31 03:00:53;;;;;;;22.80;12.38;;;;;;;19.08;62.37;102304.50;4814764;29;119286;-65
2021/08/31 03:03:21;;;;;;;21.77;11.63;;;;;;;19.06;62.45;102303.69;4814636;29;119171;-65
2021/08/31 03:05:48;;;;;;;22.67;12.10;;;;;;;19.05;62.49;102312.72;4815841;29;124298;-65
2021/08/31 03:08:15;;;;;;;21.80;12.20;;;;;;;19.05;62.39;102320.78;4811359;29;124100;-65
2021/08/31 03:10:42;;;;;;;20.95;11.52;;;;;;;19.05;62.15;102315.41;4797002;29;118405;-65
2021/08/31 03:13:09;;;;;;;21.17;11.65;;;;;;;19.05;62.21;102315.41;4814079;29;119330;-65
2021/08/31 03:15:37;;;;;;;20.02;12.27;;;;;;;19.05;62.34;102307.34;4815412;29;122892;-65
2021/08/31 03:18:04;;;;;;;23.00;12.07;;;;;;;19.05;62.34;102307.34;4816206;29;125113;-65
2021/08/31 03:20:31;;;;;;;18.58;11.63;;;;;;;19.05;62.11;102297.47;4811035;29;119289;-65
2021/08/31 03:22:58;;;;;;;18.20;11.75;;;;;;;19.05;62.26;102307.34;4800993;29;118480;-65
2021/08/31 03:25:25;;;;;;;19.42;11.55;;;;;;;19.03;62.35;102306.59;4812991;29;124574;-65
2021/08/31 03:27:52;;;;;;;19.23;11.40;;;;;;;19.02;62.30;102305.72;4811074;29;124155;-65
2021/08/31 03:30:20;;;;;;;20.00;11.30;;;;;;;19.02;62.24;102312.88;4812343;29;121765;-65
2021/08/31 03:32:47;;;;;;;19.92;11.82;;;;;;;19.01;62.45;102311.19;4813139;29;118561;-64
2021/08/31 03:35:15;;;;;;;19.10;11.48;;;;;;;19.01;62.39;102311.19;4795344;29;124098;-64
2021/08/31 03:37:42;;;;;;;18.95;11.25;;;;;;;18.98;62.50;102311.34;4810105;29;123784;-64
2021/08/31 03:40:10;;;;;;;17.38;11.15;;;;;;;18.97;62.63;102306.94;4810443;29;120531;-64
2021/08/31 03:42:37;;;;;;;18.98;11.82;;;;;;;18.96;62.43;102307.88;4812492;29;119528;-64
2021/08/31 03:45:05;;;;;;;19.63;11.93;;;;;;;18.95;62.64;102307.03;4810980;29;124582;-64
2021/08/31 03:47:32;;;;;;;17.80;11.02;;;;;;;18.94;62.51;102299.91;4813863;29;124742;-65
2021/08/31 03:50:00;;;;;;;19.40;11.63;;;;;;;18.92;62.67;102298.28;4813490;29;120092;-64
2021/08/31 03:52:27;;;;;;;21.13;12.32;;;;;;;18.91;62.65;102299.22;4813289;29;119322;-65
2021/08/31 03:54:54;;;;;;;21.13;11.55;;;;;;;18.90;62.64;102308.25;4812626;29;123942;-65
2021/08/31 03:57:21;;;;;;;18.05;10.98;;;;;;;18.89;62.67;102301.97;4815332;29;122955;-66
2021/08/31 03:59:49;;;;;;;19.48;12.02;;;;;;;18.89;62.56;102311.88;4813402;29;119110;-66
2021/08/31 04:02:16;;;;;;;22.20;11.43;;;;;;;18.88;62.75;102310.16;4814006;29;119125;-66
2021/08/31 04:04:43;;;;;;;22.73;11.90;;;;;;;18.86;62.70;102308.41;4799513;29;123870;-67
2021/08/31 04:07:10;;;;;;;18.73;11.70;;;;;;;18.88;62.79;102316.38;4816467;29;123687;-66
2021/08/31 04:09:37;;;;;;;20.02;11.50;;;;;;;18.89;62.93;102319.91;4812102;29;119151;-66
2021/08/31 04:12:05;;;;;;;21.30;12.38;;;;;;;18.89;62.92;102319.91;4800277;29;118003;-66
2021/08/31 04:14:33;;;;;;;22.52;11.93;;;;;;;18.90;62.87;102324.34;4813208;29;124252;-66
2021/08/31 04:17:00;;;;;;;22.65;12.48;;;;;;;18.90;62.65;102324.34;4818278;29;124902;-66
2021/08/31 04:19:27;;;;;;;19.10;12.30;;;;;;;18.90;63.04;102324.34;4821143;29;120129;-66
2021/08/31 04:21:54;;;;;;;20.33;12.23;;;;;;;18.89;62.96;102327.97;4819274;29;119751;-65
2021/08/31 04:24:21;;;;;;;21.40;12.40;;;;;;;18.88;62.87;102331.63;4816644;29;123796;-65
2021/08/31 04:26:48;;;;;;;22.00;12.25;;;;;;;18.90;63.01;102329.72;4819783;29;123543;-65
2021/08/31 04:29:16;;;;;;;18.75;11.63;;;;;;;18.90;63.04;102332.41;4801987;29;119220;-66
2021/08/31 04:31:43;;;;;;;21.80;11.32;;;;;;;18.92;63.06;102343.91;4819139;29;119018;-65
2021/08/31 04:34:10;;;;;;;20.95;10.88;;;;;;;18.92;63.17;102338.56;4817960;29;123704;-65
2021/08/31 04:36:39;;;;;;;22.30;11.93;;;;;;;18.91;63.25;102343.06;4822765;29;124246;-65
2021/08/31 04:39:07;;;;;;;22.00;11.73;;;;;;;18.92;63.04;102347.47;4813435;29;119623;-65
2021/08/31 04:41:34;;;;;;;19.67;10.93;;;;;;;18.91;63.00;102355.59;4819540;29;119466;-65
2021/08/31 04:44:01;;;;;;;18.27;10.77;;;;;;;18.92;63.11;102360.03;4817361;29;124907;-65
2021/08/31 04:46:28;;;;;;;18.67;11.13;;;;;;;18.93;63.13;102361.75;4820570;29;124067;-65
2021/08/31 04:48:57;;;;;;;18.40;10.40;;;;;;;18.93;63.27;102364.44;4822234;29;118378;-65
2021/08/31 04:51:24;;;;;;;18.42;11.27;;;;;;;18.94;63.29;102368.88;4817430;29;119014;-65
2021/08/31 04:53:51;;;;;;;20.35;11.20;;;;;;;18.96;63.56;102377.69;4819809;29;124143;-65
2021/08/31 04:56:20;;;;;;;20.85;11.00;;;;;;;18.95;63.32;102370.56;4804408;29;123440;-65
2021/08/31 04:58:47;;;;;;;19.08;10.27;;;;;;;18.96;63.35;102377.69;4817879;29;119244;-65
2021/08/31 05:01:14;;;;;;;20.00;10.88;;;;;;;18.95;63.22;102370.56;4818326;29;119107;-66
2021/08/31 05:03:42;;;;;;;19.13;10.32;;;;;;;18.96;63.21;102383.06;4817874;29;123892;-66
2021/08/31 05:06:10;;;;;;;17.83;10.23;;;;;;;18.96;63.24;102375.00;4818555;29;122856;-66
2021/08/31 05:08:37;;;;;;;20.92;9.95;;;;;;;18.98;63.27;102381.16;4814462;29;120299;-65
2021/08/31 05:11:06;;;;;;;17.30;9.82;;;;;;;18.99;63.14;102393.66;4820588;29;120260;-65
2021/08/31 05:13:39;;;;;;;17.88;9.75;;;;;;;19.00;63.18;102390.00;4819648;29;123898;-66
2021/08/31 05:16:08;;;;;;;16.15;9.02;;;;;;;18.99;63.14;102383.75;4817464;29;123847;-66
2021/08/31 05:18:36;;;;;;;14.20;8.90;;;;;;;18.99;62.78;102390.97;4819548;29;118593;-66
2021/08/31 05:21:04;;;;;;;15.90;10.00;;;;;;;18.98;62.93;102397.25;4819782;29;119427;-66
2021/08/31 05:23:32;;;;;;;17.10;9.93;;;;;;;18.99;63.18;102389.13;4817292;29;124108;-67
2021/08/31 05:26:01;;;;;;;17.55;10.25;;;;;;;19.01;63.22;102397.97;4820182;29;124153;-67
2021/08/31 05:28:28;;;;;;;17.65;9.57;;;;;;;19.03;63.10;102408.63;4811937;29;119239;-66
2021/08/31 05:30:55;;;;;;;16.45;10.30;;;;;;;19.04;62.99;102403.19;4815192;29;119249;-65
2021/08/31 05:33:22;;;;;;;17.33;10.30;;;;;;;19.06;63.23;102405.75;4815698;29;124320;-65
2021/08/31 05:35:50;;;;;;;16.80;9.30;;;;;;;19.09;62.97;102410.09;4799149;29;123946;-66
2021/08/31 05:38:17;;;;;;;16.45;10.15;;;;;;;19.12;62.97;102410.81;4811417;29;120206;-66
2021/08/31 05:40:44;;;;;;;15.43;9.52;;;;;;;19.14;62.91;102414.25;4811855;29;119160;-67
2021/08/31 05:43:11;;;;;;;22.13;9.65;;;;;;;19.19;63.08;102417.56;4813382;29;124641;-67
2021/08/31 05:45:40;;;;;;;14.25;9.30;;;;;;;19.21;63.08;102421.03;4814087;29;124659;-67
2021/08/31 05:48:07;;;;;;;17.20;9.60;;;;;;;19.23;62.99;102419.13;4816160;29;119811;-65
2021/08/31 05:50:34;;;;;;;16.63;9.55;;;;;;;19.26;62.90;102418.06;4816177;29;119404;-66
2021/08/31 05:53:02;;;;;;;17.40;9.35;;;;;;;19.30;62.88;102418.75;4816655;29;123452;-65
2021/08/31 05:55:29;;;;;;;19.48;9.98;;;;;;;19.33;62.84;102416.78;4816892;29;124787;-64
2021/08/31 05:57:56;;;;;;;17.02;9.82;;;;;;;19.36;62.68;102418.41;4811220;29;120399;-65
2021/08/31 06:00:23;;;;;;;17.40;9.77;;;;;;;19.39;62.93;102423.63;4815373;29;119981;-66
2021/08/31 06:02:51;;;;;;;16.15;9.98;;;;;;;19.41;62.87;102416.34;4815777;29;124198;-66
2021/08/31 06:05:19;;;;;;;15.45;9.30;;;;;;;19.43;62.95;102419.78;4814696;29;124274;-65
2021/08/31 06:07:46;;;;;;;17.05;9.65;;;;;;;19.44;62.85;102426.91;4815421;29;119628;-65
2021/08/31 06:10:15;;;;;;;17.50;9.88;;;;;;;19.45;63.02;102420.56;4801258;29;117784;-66
2021/08/31 06:12:42;;;;;;;17.92;9.27;;;;;;;19.47;62.94;102421.34;4816115;29;123007;-66
2021/08/31 06:15:10;;;;;;;18.65;9.10;;;;;;;19.51;62.82;102422.91;4815520;29;124235;-67
2021/08/31 06:17:38;;;;;;;16.35;8.80;;;;;;;19.52;62.67;102421.97;4813482;29;120203;-66
2021/08/31 06:20:07;;;;;;;18.42;8.57;;;;;;;19.52;62.49;102429.16;4812845;29;119393;-65
2021/08/31 06:22:34;;;;;;;15.02;8.30;;;;;;;19.50;62.72;102421.19;4814827;29;124224;-65
2021/08/31 06:25:02;;;;;;;13.55;7.72;;;;;;;19.51;62.55;102432.78;4816369;29;123767;-67
2021/08/31 06:27:29;;;;;;;17.17;7.93;;;;;;;19.52;62.36;102424.66;4814524;29;119694;-66
2021/08/31 06:29:56;;;;;;;15.20;8.18;;;;;;;19.51;62.56;102422.91;4813994;29;118159;-64
2021/08/31 06:32:24;;;;;;;14.27;7.55;;;;;;;19.51;62.56;102420.22;4815274;29;124078;-65
2021/08/31 06:34:51;;;;;;;14.60;7.38;;;;;;;19.50;62.41;102426.56;4798125;29;124381;-65
2021/08/31 06:37:18;;;;;;;14.80;6.93;;;;;;;19.51;62.31;102428.28;4814520;29;118150;-65
2021/08/31 06:39:46;;;;;;;13.00;6.72;;;;;;;19.52;62.38;102440.75;4811388;29;118722;-64
2021/08/31 06:42:13;;;;;;;11.30;6.93;;;;;;;19.52;62.24;102438.09;4807159;29;124772;-66
2021/08/31 06:44:40;;;;;;;11.63;6.38;;;;;;;19.52;62.14;102435.41;4814747;29;123874;-67
2021/08/31 06:47:08;;;;;;;14.70;7.13;;;;;;;19.53;62.31;102434.41;4814644;29;120296;-65
2021/08/31 06:49:35;;;;;;;12.02;6.93;;;;;;;19.55;62.19;102435.22;4816418;29;119827;-66
2021/08/31 06:52:03;;;;;;;12.18;6.47;;;;;;;19.57;62.19;102427.94;4817255;29;122986;-66
2021/08/31 06:54:31;;;;;;;11.57;6.47;;;;;;;19.60;62.32;102438.50;4821053;29;122728;-66
2021/08/31 06:56:58;;;;;;;10.98;6.05;;;;;;;19.65;62.11;102438.25;4816585;29;119329;-66
2021/08/31 06:59:25;;;;;;;12.45;6.50;;;;;;;19.68;62.02;102440.72;4813261;29;119193;-66
2021/08/31 07:01:53;;;;;;;12.70;6.30;;;;;;;19.72;62.07;102442.34;4813856;29;124173;-67
2021/08/31 07:04:21;;;;;;;13.82;6.43;;;;;;;19.76;62.32;102435.84;4822854;29;123019;-65
2021/08/31 07:06:48;;;;;;;12.63;6.18;;;;;;;19.81;62.20;102440.94;4814804;29;119808;-66
2021/08/31 07:09:15;;;;;;;10.40;5.90;;;;;;;19.86;61.97;102443.34;4814647;29;118954;-66
2021/08/31 07:11:42;;;;;;;13.68;6.05;;;;;;;19.88;61.79;102436.91;4816240;29;122884;-66
2021/08/31 07:14:09;;;;;;;8.85;5.45;;;;;;;19.91;61.66;102452.88;4813850;29;124287;-66
2021/08/31 07:16:37;;;;;;;13.15;6.20;;;;;;;19.93;62.11;102445.59;4814170;29;119400;-66
2021/08/31 07:19:04;;;;;;;10.73;5.70;;;;;;;19.98;61.91;102454.22;4814134;29;119249;-66
2021/08/31 07:21:31;;;;;;;11.57;5.25;;;;;;;20.03;61.81;102457.53;4814626;29;123985;-66
2021/08/31 07:23:58;;;;;;;10.65;5.63;;;;;;;20.08;61.70;102456.38;4798634;29;124918;-66
2021/08/31 07:26:25;;;;;;;12.48;5.50;;;;;;;20.10;61.58;102462.53;4816050;29;119331;-64
2021/08/31 07:28:56;;;;;;;7.68;4.90;;;;;;;20.11;61.54;102464.28;4806771;29;119654;-64
2021/08/31 07:31:24;;;;;;;10.85;4.78;;;;;;;20.12;61.44;102461.50;4811666;29;124004;-64
2021/08/31 07:33:51;;;;;;;14.27;5.50;;;;;;;20.15;61.40;102468.50;4812719;29;124042;-64
2021/08/31 07:36:21;;;;;;;11.43;4.97;;;;;;;20.17;61.14;102463.91;4801221;29;119608;-66
2021/08/31 07:38:50;;;;;;;9.63;5.15;;;;;;;20.19;61.35;102461.97;4806054;29;119830;-65
2021/08/31 07:41:18;;;;;;;10.55;5.05;;;;;;;20.20;61.41;102474.50;4813844;29;124814;-65
2021/08/31 07:43:46;;;;;;;9.80;5.32;;;;;;;20.22;61.33;102461.81;4806759;29;124640;-65
2021/08/31 07:46:14;;;;;;;10.18;5.40;;;;;;;20.24;61.27;102476.03;4788115;29;119674;-65
2021/08/31 07:48:49;;;;;;;11.45;5.45;;;;;;;20.27;61.04;102470.47;4808826;29;119281;-63
2021/08/31 07:51:47;;;;;;;10.32;5.32;;;;;;;20.32;61.28;102483.66;4819502;29;124037;-65
2021/08/31 07:54:14;;;;;;;10.93;5.63;;;;;;;20.34;61.05;102477.22;4873619;23;124311;-66
2021/08/31 07:56:42;;;;;;;9.90;5.50;;;;;;;20.39;61.03;102480.50;4870243;28;119353;-66
2021/08/31 07:59:09;;;;;;;10.85;5.53;;;;;;;20.43;60.96;102482.03;4861880;28;118884;-66
2021/08/31 08:01:36;;;;;;;13.20;5.60;;;;;;;20.48;61.03;102483.59;4865255;28;124085;-66
2021/08/31 08:04:04;;;;;;;10.57;6.00;;;;;;;20.50;60.83;102487.91;4861163;28;123941;-65
2021/08/31 08:06:31;;;;;;;12.95;5.30;;;;;;;20.54;60.78;102488.59;4853112;28;119185;-66
2021/08/31 08:08:59;;;;;;;12.57;5.97;;;;;;;20.59;60.54;102494.56;4866213;28;119134;-66
2021/08/31 08:11:26;;;;;;;12.35;5.80;;;;;;;20.64;60.55;102489.78;4861832;28;124036;-66
2021/08/31 08:13:53;;;;;;;10.98;5.20;;;;;;;20.67;60.21;102484.22;4860190;28;124437;-66
2021/08/31 08:16:20;;;;;;;13.55;5.72;;;;;;;20.69;60.30;102485.00;4866135;28;119089;-66
2021/08/31 08:18:48;;;;;;;10.60;5.55;;;;;;;20.72;60.21;102484.81;4863094;28;119370;-66
2021/08/31 08:21:15;;;;;;;10.90;5.15;;;;;;;20.75;60.29;102487.28;4850404;28;123116;-65
2021/08/31 08:23:43;;;;;;;11.80;5.20;;;;;;;20.79;60.29;102488.88;4869806;28;124415;-66
2021/08/31 08:26:10;;;;;;;11.77;5.45;;;;;;;20.86;60.07;102493.88;4871218;28;120672;-66
2021/08/31 08:28:39;;;;;;;8.88;5.00;;;;;;;20.90;59.90;102484.63;4855441;28;119583;-66
2021/08/31 08:31:07;;;;;;;11.02;5.65;;;;;;;20.95;59.67;102493.28;4851868;28;124770;-65
2021/08/31 08:33:34;;;;;;;14.10;5.30;;;;;;;20.97;59.60;102491.38;4856425;28;123922;-66
2021/08/31 08:36:04;;;;;;;12.52;5.70;;;;;;;20.98;59.61;102504.75;4855635;28;119563;-69
2021/08/31 08:38:32;;;;;;;10.73;5.13;;;;;;;21.02;59.54;102500.03;4859097;28;120663;-70
2021/08/31 08:41:04;;;;;;;13.02;5.28;;;;;;;21.07;59.53;102507.81;4855658;28;123914;-69
2021/08/31 08:43:33;;;;;;;10.98;5.22;;;;;;;21.12;59.55;102493.09;4856374;28;124457;-69
2021/08/31 08:46:03;;;;;;;10.07;5.05;;;;;;;21.16;59.62;102491.06;4856478;28;119504;-69
2021/08/31 08:48:31;;;;;;;10.73;5.00;;;;;;;21.20;59.40;102493.44;4854685;28;118823;-69
2021/08/31 08:51:02;;;;;;;12.63;5.50;;;;;;;21.24;59.34;102498.66;4853525;28;126317;-69
2021/08/31 08:53:30;;;;;;;10.23;5.28;;;;;;;21.28;59.15;102505.56;4861190;28;123951;-69
2021/08/31 08:56:00;;;;;;;11.48;5.53;;;;;;;21.31;59.20;102500.00;4843313;28;118391;-69
2021/08/31 08:58:28;;;;;;;13.75;5.38;;;;;;;21.33;59.16;102506.16;4856773;28;118991;-69
2021/08/31 09:01:01;;;;;;;10.88;5.70;;;;;;;21.34;59.08;102497.09;4854049;28;123966;-69
2021/08/31 09:03:31;;;;;;;12.27;5.47;;;;;;;21.37;58.92;102504.97;4864075;28;124381;-69
2021/08/31 09:06:25;;;;;;;11.25;5.47;;;;;;;21.39;59.11;102503.91;4867343;28;119364;-70
2021/08/31 09:08:57;;;;;;;11.05;5.47;;;;;;;21.43;59.10;102504.56;4860464;28;119447;-70
2021/08/31 09:11:28;;;;;;;11.35;5.60;;;;;;;21.46;58.92;102509.81;4849570;28;124501;-69
2021/08/31 09:14:14;;;;;;;14.95;6.38;;;;;;;21.50;59.00;102508.66;4859266;28;122837;-70
2021/08/31 09:16:43;;;;;;;9.30;4.93;;;;;;;21.52;58.81;102509.41;4858352;28;119235;-70
2021/08/31 09:19:12;;;;;;;10.23;5.43;;;;;;;21.55;58.76;102509.22;4871969;28;119965;-69
2021/08/31 09:21:40;;;;;;;9.60;5.05;;;;;;;21.61;58.53;102512.50;4872907;28;123827;-70
2021/08/31 09:24:11;;;;;;;12.45;5.28;;;;;;;21.62;58.39;102514.22;4858520;28;123930;-69
2021/08/31 09:26:41;;;;;;;9.30;4.90;;;;;;;21.66;58.49;102515.72;4844259;28;119679;-70
2021/08/31 09:29:21;;;;;;;9.60;5.30;;;;;;;21.72;58.49;102512.66;4859137;28;119587;-66
2021/08/31 09:31:55;;;;;;;9.90;4.78;;;;;;;21.78;58.23;102514.94;4856022;28;123932;-65
2021/08/31 09:34:37;;;;;;;9.30;4.87;;;;;;;21.84;58.11;102506.44;4857421;28;124240;-67
2021/08/31 09:37:26;;;;;;;10.57;4.78;;;;;;;21.89;58.02;102501.59;4857078;28;119070;-66
2021/08/31 09:40:10;;;;;;;8.93;4.90;;;;;;;21.95;58.03;102501.19;4861435;28;119370;-66
2021/08/31 09:42:56;;;;;;;9.48;4.60;;;;;;;22.02;57.85;102511.56;4862262;28;126554;-66
2021/08/31 09:45:26;;;;;;;9.05;4.78;;;;;;;22.08;57.56;102511.16;4857279;28;124397;-66
2021/08/31 09:47:55;;;;;;;9.23;4.68;;;;;;;22.12;57.43;102512.69;4859685;28;119251;-66
2021/08/31 09:50:35;;;;;;;10.45;4.60;;;;;;;22.15;57.54;102512.47;4864079;28;118907;-66
2021/08/31 09:53:14;;;;;;;10.32;4.97;;;;;;;22.20;57.47;102518.41;4859875;28;124593;-66
2021/08/31 09:55:44;;;;;;;10.05;4.88;;;;;;;22.26;57.36;102520.72;4857082;28;124573;-66
2021/08/31 09:58:16;;;;;;;8.98;4.82;;;;;;;22.32;57.38;102514.94;4860226;28;119465;-68
2021/08/31 10:00:47;;;;;;;11.15;4.93;;;;;;;22.38;57.24;102513.66;4870655;28;119244;-69
2021/08/31 10:03:27;;;;;;;8.32;5.18;;;;;;;22.45;57.20;102504.16;4859178;28;123343;-69
2021/08/31 10:05:56;;;;;;;9.35;4.28;;;;;;;22.57;57.03;102513.25;4861079;28;124281;-66
2021/08/31 10:08:25;;;;;;;7.82;4.20;;;;;;;22.70;57.06;102508.72;4836437;28;120021;-66
2021/08/31 10:10:54;;;;;;;7.68;4.15;;;;;;;22.86;57.02;102513.03;4854646;28;119948;-66
2021/08/31 10:13:25;;;;;;;8.38;4.47;;;;;;;23.02;56.67;102502.84;4858573;28;124338;-66
2021/08/31 10:15:57;;;;;;;8.88;4.60;;;;;;;23.19;56.79;102508.91;4858849;28;124329;-65
2021/08/31 10:18:27;;;;;;;8.98;4.88;;;;;;;23.31;56.20;102510.72;4862196;28;119324;-66
2021/08/31 10:21:00;;;;;;;7.53;4.45;;;;;;;23.41;55.99;102509.06;4860546;28;119572;-66
2021/08/31 10:23:32;;;;;;;8.68;4.38;;;;;;;23.51;55.88;102504.72;4869388;28;124421;-66
2021/08/31 10:26:27;;;;;;;8.88;5.30;;;;;;;23.65;55.95;102505.53;4871515;28;125012;-66
2021/08/31 10:29:13;;;;;;;10.07;5.05;;;;;;;23.77;55.90;102510.06;4871420;28;119892;-67
2021/08/31 10:31:51;;;;;;;8.20;4.88;;;;;;;23.84;55.51;102495.09;4867341;28;119108;-66
2021/08/31 10:34:30;;;;;;;8.00;3.78;;;;;;;23.96;54.75;102503.25;4864937;28;123988;-65
2021/08/31 10:37:05;;;;;;;7.43;4.20;;;;;;;24.06;54.94;102498.91;4855889;28;123769;-66
2021/08/31 10:39:57;;;;;;;8.70;4.97;;;;;;;24.16;54.95;102499.91;4858538;28;119296;-66
2021/08/31 10:42:24;;;;;;;8.63;4.32;;;;;;;24.22;54.29;102507.59;4856612;28;119320;-66
2021/08/31 10:44:53;;;;;;;7.78;4.00;;;;;;;24.19;53.66;102505.09;4862843;28;124176;-66
2021/08/31 10:47:31;;;;;;;6.95;3.85;;;;;;;24.09;53.12;102509.47;4854980;28;122871;-66
2021/08/31 10:49:58;;;;;;;6.63;4.00;;;;;;;24.01;53.05;102506.50;4855568;28;119662;-66
2021/08/31 10:52:56;;;;;;;8.25;4.18;;;;;;;23.98;53.30;102501.31;4858746;28;119531;-66
2021/08/31 10:55:23;;;;;;;8.68;3.90;;;;;;;23.99;53.37;102508.47;4867135;28;124801;-66
2021/08/31 10:58:02;;;;;;;6.95;3.95;;;;;;;24.02;53.48;102500.13;4861546;28;123775;-66
2021/08/31 11:00:29;;;;;;;6.22;3.22;;;;;;;24.08;53.49;102507.75;4858385;28;121294;-66
2021/08/31 11:02:59;;;;;;;5.00;3.05;;;;;;;24.16;53.10;102505.31;4860591;28;120228;-66
2021/08/31 11:05:29;;;;;;;6.80;3.50;;;;;;;24.23;52.81;102512.00;4865519;28;123877;-66
2021/08/31 11:08:00;;;;;;;5.68;3.28;;;;;;;24.28;52.16;102504.38;4871886;28;123860;-66
2021/08/31 11:10:31;;;;;;;7.35;3.10;;;;;;;24.37;52.38;102496.53;4863448;28;119721;-66
2021/08/31 11:13:13;;;;;;;6.78;3.58;;;;;;;24.48;52.19;102499.25;4853160;28;122325;-66
2021/08/31 11:15:40;;;;;;;8.38;3.88;;;;;;;24.57;52.00;102506.72;4854385;28;125847;-66
2021/08/31 11:18:13;;;;;;;5.45;3.22;;;;;;;24.58;50.74;102505.72;4856814;28;123784;-66